Time;durP1;ratioP1;P1;durP2;ratioP2;P2;SDS_P1;SDS_P2;PMS_P1;PMS_P2;Temp;Humidity;BMP_temperature;BMP_pressure;BME280_temperature;BME280_humidity;BME280_pressure;Samples;Min_cycle;Max_cycle;Signal;HPM_P1;HPM_P2
2023/11/27 00:00:40;;;;;;;24.60;12.10;;;;;;;-128.00;-1.00;-1.00;105476;1252;1062392;-78
2023/11/27 00:03:22;;;;;;;19.80;11.90;;;;;;;-128.00;-1.00;-1.00;105346;1253;1057168;-78
2023/11/27 00:05:52;;;;;;;19.50;9.70;;;;;;;-128.00;-1.00;-1.00;105338;1253;1061119;-78
2023/11/27 00:08:22;;;;;;;22.00;10.20;;;;;;;-128.00;-1.00;-1.00;105535;1253;1046087;-78
2023/11/27 00:10:51;;;;;;;22.30;9.00;;;;;;;-128.00;-1.00;-1.00;105425;1252;1048488;-78
2023/11/27 00:13:19;;;;;;;20.50;10.10;;;;;;;-128.00;-1.00;-1.00;105325;1252;1004083;-78
2023/11/27 00:16:00;;;;;;;17.70;8.00;;;;;;;-128.00;-1.00;-1.00;105460;1252;1058677;-78
2023/11/27 00:18:27;;;;;;;20.30;8.20;;;;;;;-128.00;-1.00;-1.00;105376;1253;1003544;-78
2023/11/27 00:21:08;;;;;;;15.10;8.60;;;;;;;-128.00;-1.00;-1.00;105363;1254;1046727;-78
2023/11/27 00:23:43;;;;;;;21.30;9.00;;;;;;;-128.00;-1.00;-1.00;105431;1253;1046228;-78
2023/11/27 00:26:23;;;;;;;15.70;9.50;;;;;;;-128.00;-1.00;-1.00;105399;1252;1061615;-78
2023/11/27 00:29:04;;;;;;;18.70;12.00;;;;;;;-128.00;-1.00;-1.00;105468;1252;1058228;-78
2023/11/27 00:31:34;;;;;;;16.80;8.20;;;;;;;-128.00;-1.00;-1.00;105496;1252;1059013;-78
2023/11/27 00:34:16;;;;;;;20.50;10.20;;;;;;;-128.00;-1.00;-1.00;105404;1253;1045303;-78
2023/11/27 00:36:50;;;;;;;22.00;9.90;;;;;;;-128.00;-1.00;-1.00;105551;1252;1047306;-78
2023/11/27 00:39:23;;;;;;;14.40;6.80;;;;;;;-128.00;-1.00;-1.00;105439;1252;1061714;-78
2023/11/27 00:41:58;;;;;;;16.80;8.20;;;;;;;-128.00;-1.00;-1.00;105444;1252;1058284;-78
2023/11/27 00:44:39;;;;;;;13.00;6.20;;;;;;;-128.00;-1.00;-1.00;105389;1252;1060607;-78
2023/11/27 00:47:19;;;;;;;19.00;8.30;;;;;;;-128.00;-1.00;-1.00;105545;1252;1046213;-78
2023/11/27 00:49:48;;;;;;;13.20;6.90;;;;;;;-128.00;-1.00;-1.00;105423;1252;1004289;-78
2023/11/27 00:52:30;;;;;;;19.80;7.60;;;;;;;-128.00;-1.00;-1.00;105428;1252;1062074;-79
2023/11/27 00:55:00;;;;;;;18.50;8.40;;;;;;;-128.00;-1.00;-1.00;105456;1253;1058028;-78
2023/11/27 00:57:28;;;;;;;20.60;8.40;;;;;;;-128.00;-1.00;-1.00;105307;1253;1004439;-78
2023/11/27 01:00:11;;;;;;;16.20;7.80;;;;;;;-128.00;-1.00;-1.00;105369;1255;1046348;-78
2023/11/27 01:02:53;;;;;;;14.90;7.30;;;;;;;-128.00;-1.00;-1.00;105435;1252;1047707;-78
2023/11/27 01:05:34;;;;;;;19.60;7.80;;;;;;;-128.00;-1.00;-1.00;105456;1252;1061574;-78
2023/11/27 01:08:03;;;;;;;;;;;;;;;-128.00;-1.00;-1.00;105677;1252;1057590;-78
2023/11/27 01:10:31;;;;;;;12.30;6.30;;;;;;;-128.00;-1.00;-1.00;105371;1253;1004347;-78
2023/11/27 01:13:12;;;;;;;13.90;6.60;;;;;;;-128.00;-1.00;-1.00;105415;1252;1046492;-78
2023/11/27 01:15:42;;;;;;;12.70;6.00;;;;;;;-128.00;-1.00;-1.00;105341;1252;1046968;-78
2023/11/27 01:18:14;;;;;;;11.50;6.50;;;;;;;-128.00;-1.00;-1.00;105450;1253;1061999;-78
2023/11/27 01:20:45;;;;;;;11.70;5.60;;;;;;;-128.00;-1.00;-1.00;105404;1253;1058930;-78
2023/11/27 01:23:27;;;;;;;11.10;6.20;;;;;;;-128.00;-1.00;-1.00;105504;1252;1059623;-78
2023/11/27 01:26:08;;;;;;;12.30;6.70;;;;;;;-128.00;-1.00;-1.00;105475;1252;1046458;-78
2023/11/27 01:28:41;;;;;;;8.50;5.20;;;;;;;-128.00;-1.00;-1.00;105405;1253;1046476;-78
2023/11/27 01:31:09;;;;;;;15.60;8.40;;;;;;;-128.00;-1.00;-1.00;105623;1252;1004517;-78
2023/11/27 01:33:40;;;;;;;14.70;7.00;;;;;;;-128.00;-1.00;-1.00;105473;1253;1004196;-78
2023/11/27 01:36:11;;;;;;;13.30;7.10;;;;;;;-128.00;-1.00;-1.00;105447;1252;1058225;-78
2023/11/27 01:38:46;;;;;;;19.90;8.00;;;;;;;-128.00;-1.00;-1.00;105385;1253;1046945;-78
2023/11/27 01:41:19;;;;;;;18.90;9.70;;;;;;;-128.00;-1.00;-1.00;105463;1252;1046713;-78
2023/11/27 01:43:49;;;;;;;13.60;6.80;;;;;;;-128.00;-1.00;-1.00;105531;1252;1004896;-78
2023/11/27 01:46:30;;;;;;;12.40;5.60;;;;;;;-128.00;-1.00;-1.00;105602;1253;1058842;-78
2023/11/27 01:48:57;;;;;;;13.00;6.60;;;;;;;-128.00;-1.00;-1.00;105547;1252;1004794;-78
2023/11/27 01:51:38;;;;;;;13.10;6.10;;;;;;;-128.00;-1.00;-1.00;105386;1253;1046189;-78
2023/11/27 01:54:07;;;;;;;19.00;9.00;;;;;;;-128.00;-1.00;-1.00;105471;1253;1047146;-78
2023/11/27 01:56:36;;;;;;;15.50;7.10;;;;;;;-128.00;-1.00;-1.00;105450;1253;1061580;-78
2023/11/27 01:59:03;;;;;;;15.70;8.10;;;;;;;-128.00;-1.00;-1.00;105436;1252;1003730;-78
2023/11/27 02:01:32;;;;;;;13.70;8.50;;;;;;;-128.00;-1.00;-1.00;105473;1253;1003667;-78
2023/11/27 02:04:00;;;;;;;13.50;6.80;;;;;;;-128.00;-1.00;-1.00;105311;1253;1045648;-78
2023/11/27 02:06:30;;;;;;;14.50;8.50;;;;;;;-128.00;-1.00;-1.00;105460;1252;1046234;-78
2023/11/27 02:09:13;;;;;;;20.40;10.30;;;;;;;-128.00;-1.00;-1.00;105446;1252;1062635;-78
2023/11/27 02:11:49;;;;;;;18.80;10.70;;;;;;;-128.00;-1.00;-1.00;105386;1252;1057831;-78
2023/11/27 02:14:30;;;;;;;13.70;7.00;;;;;;;-128.00;-1.00;-1.00;105471;1252;1059160;-79
2023/11/27 02:17:04;;;;;;;17.50;7.60;;;;;;;-128.00;-1.00;-1.00;105449;1253;1045915;-78
2023/11/27 02:19:32;;;;;;;25.20;10.70;;;;;;;-128.00;-1.00;-1.00;105421;1253;1004836;-78
2023/11/27 02:22:06;;;;;;;14.30;8.80;;;;;;;-128.00;-1.00;-1.00;105492;1252;1061322;-78
2023/11/27 02:24:35;;;;;;;22.20;14.00;;;;;;;-128.00;-1.00;-1.00;105484;1253;1057781;-78
2023/11/27 02:27:04;;;;;;;23.50;13.80;;;;;;;-128.00;-1.00;-1.00;105468;1252;1058409;-78
2023/11/27 02:29:33;;;;;;;15.30;9.00;;;;;;;-128.00;-1.00;-1.00;105417;1253;1046439;-78
2023/11/27 02:32:03;;;;;;;16.80;8.30;;;;;;;-128.00;-1.00;-1.00;105443;1253;1004177;-77
2023/11/27 02:34:33;;;;;;;17.40;8.40;;;;;;;-128.00;-1.00;-1.00;105453;1255;1061916;-78
2023/11/27 02:37:08;;;;;;;17.10;9.50;;;;;;;-128.00;-1.00;-1.00;105449;1252;1058460;-78
2023/11/27 02:39:44;;;;;;;16.80;8.60;;;;;;;-128.00;-1.00;-1.00;105445;1253;1058487;-78
2023/11/27 02:42:19;;;;;;;15.20;9.40;;;;;;;-128.00;-1.00;-1.00;105474;1252;1046321;-78
2023/11/27 02:44:49;;;;;;;20.30;10.90;;;;;;;-128.00;-1.00;-1.00;105459;1253;1046734;-78
2023/11/27 02:47:18;;;;;;;19.00;9.50;;;;;;;-128.00;-1.00;-1.00;105472;1252;1061515;-78
2023/11/27 02:49:54;;;;;;;11.00;6.10;;;;;;;-128.00;-1.00;-1.00;105425;1252;1059134;-78
2023/11/27 02:52:24;;;;;;;14.90;6.20;;;;;;;-128.00;-1.00;-1.00;105428;1253;1059536;-78
2023/11/27 02:55:00;;;;;;;12.50;6.50;;;;;;;-128.00;-1.00;-1.00;105365;1253;1046702;-78
2023/11/27 02:57:29;;;;;;;18.60;8.60;;;;;;;-128.00;-1.00;-1.00;105468;1253;1004284;-78
2023/11/27 03:00:00;;;;;;;27.50;11.00;;;;;;;-128.00;-1.00;-1.00;105402;1252;1062781;-78
2023/11/27 03:02:28;;;;;;;20.40;10.40;;;;;;;-128.00;-1.00;-1.00;105401;1253;1004415;-78
2023/11/27 03:05:08;;;;;;;11.40;5.60;;;;;;;-128.00;-1.00;-1.00;105373;1253;1059787;-78
2023/11/27 03:07:39;;;;;;;12.50;5.80;;;;;;;-128.00;-1.00;-1.00;105499;1252;1046659;-78
2023/11/27 03:10:13;;;;;;;10.50;5.80;;;;;;;-128.00;-1.00;-1.00;105392;1253;1048473;-78
2023/11/27 03:12:47;;;;;;;21.10;10.90;;;;;;;-128.00;-1.00;-1.00;105459;1253;1062747;-78
2023/11/27 03:15:18;;;;;;;11.90;5.90;;;;;;;-128.00;-1.00;-1.00;105361;1253;1004217;-78
2023/11/27 03:17:46;;;;;;;17.20;7.50;;;;;;;-128.00;-1.00;-1.00;105360;1252;1059221;-78
2023/11/27 03:20:17;;;;;;;14.00;8.10;;;;;;;-128.00;-1.00;-1.00;105504;1252;1046222;-78
2023/11/27 03:22:49;;;;;;;10.90;7.30;;;;;;;-128.00;-1.00;-1.00;105502;1252;1047615;-78
2023/11/27 03:25:26;;;;;;;15.30;10.00;;;;;;;-128.00;-1.00;-1.00;105508;1252;1062788;-78
2023/11/27 03:27:59;;;;;;;18.60;10.10;;;;;;;-128.00;-1.00;-1.00;105428;1252;1057651;-78
2023/11/27 03:30:26;;;;;;;13.20;8.00;;;;;;;-128.00;-1.00;-1.00;105505;1253;1005370;-78
2023/11/27 03:32:57;;;;;;;16.70;11.40;;;;;;;-128.00;-1.00;-1.00;105569;1252;1045666;-78
2023/11/27 03:35:29;;;;;;;28.30;12.50;;;;;;;-128.00;-1.00;-1.00;105492;1252;1048358;-78
2023/11/27 03:37:57;;;;;;;;;;;;;;;-128.00;-1.00;-1.00;105551;1252;1061743;-77
2023/11/27 03:40:24;;;;;;;16.00;9.10;;;;;;;-128.00;-1.00;-1.00;105357;1253;1004323;-78
2023/11/27 03:42:53;;;;;;;20.80;14.30;;;;;;;-128.00;-1.00;-1.00;105388;1252;1059619;-78
2023/11/27 03:45:26;;;;;;;19.10;10.10;;;;;;;-128.00;-1.00;-1.00;105458;1253;1047113;-78
2023/11/27 03:47:56;;;;;;;39.50;18.80;;;;;;;-128.00;-1.00;-1.00;105448;1252;1048158;-78
2023/11/27 03:50:36;;;;;;;31.50;13.20;;;;;;;-128.00;-1.00;-1.00;105457;1252;1062029;-78
2023/11/27 03:53:10;;;;;;;32.30;13.50;;;;;;;-128.00;-1.00;-1.00;105452;1252;1058910;-78
2023/11/27 03:55:43;;;;;;;26.60;14.60;;;;;;;-128.00;-1.00;-1.00;105321;1253;1060083;-78
2023/11/27 03:58:12;;;;;;;31.80;15.90;;;;;;;-128.00;-1.00;-1.00;105418;1252;1046600;-78
2023/11/27 04:00:39;;;;;;;17.30;7.40;;;;;;;-128.00;-1.00;-1.00;105436;1253;1004155;-78
2023/11/27 04:03:19;;;;;;;16.20;8.20;;;;;;;-128.00;-1.00;-1.00;105406;1253;1062284;-78
2023/11/27 04:05:49;;;;;;;17.90;8.80;;;;;;;-128.00;-1.00;-1.00;105491;1253;1058202;-78
2023/11/27 04:08:21;;;;;;;14.50;8.00;;;;;;;-128.00;-1.00;-1.00;105430;1252;1059550;-79
2023/11/27 04:10:51;;;;;;;25.80;13.20;;;;;;;-128.00;-1.00;-1.00;105304;1253;1046774;-79
2023/11/27 04:13:22;;;;;;;43.80;19.30;;;;;;;-128.00;-1.00;-1.00;105376;1252;1047760;-78
2023/11/27 04:15:52;;;;;;;20.70;11.60;;;;;;;-128.00;-1.00;-1.00;105298;1252;1061967;-79
2023/11/27 04:18:20;;;;;;;20.20;12.30;;;;;;;-128.00;-1.00;-1.00;105535;1252;1004782;-78
2023/11/27 04:21:02;;;;;;;27.50;13.40;;;;;;;-128.00;-1.00;-1.00;105559;1253;1058733;-78
2023/11/27 04:23:46;;;;;;;16.30;7.20;;;;;;;-128.00;-1.00;-1.00;105513;1252;1045457;-78
2023/11/27 04:26:21;;;;;;;14.40;8.30;;;;;;;-128.00;-1.00;-1.00;105332;1252;1046616;-78
2023/11/27 04:29:02;;;;;;;19.30;11.80;;;;;;;-128.00;-1.00;-1.00;105293;1253;1062868;-78
2023/11/27 04:31:38;;;;;;;12.90;8.00;;;;;;;-128.00;-1.00;-1.00;105430;1252;1057486;-78
2023/11/27 04:34:07;;;;;;;23.80;13.60;;;;;;;-128.00;-1.00;-1.00;105538;1252;1058760;-78
2023/11/27 04:36:43;;;;;;;18.60;10.30;;;;;;;-128.00;-1.00;-1.00;105371;1253;1045522;-78
2023/11/27 04:39:26;;;;;;;15.60;8.60;;;;;;;-128.00;-1.00;-1.00;105465;1252;1046955;-78
2023/11/27 04:42:03;;;;;;;28.90;16.80;;;;;;;-128.00;-1.00;-1.00;105431;1253;1062519;-78
2023/11/27 04:44:32;;;;;;;25.50;14.80;;;;;;;-128.00;-1.00;-1.00;105533;1252;1058152;-77
2023/11/27 04:47:03;;;;;;;27.60;16.70;;;;;;;-128.00;-1.00;-1.00;105432;1251;1059519;-78
2023/11/27 04:49:39;;;;;;;21.80;13.80;;;;;;;-128.00;-1.00;-1.00;105372;1253;1046430;-78
2023/11/27 04:52:10;;;;;;;27.20;12.30;;;;;;;-128.00;-1.00;-1.00;105409;1253;1046581;-78
2023/11/27 04:54:39;;;;;;;32.60;12.90;;;;;;;-128.00;-1.00;-1.00;105421;1253;1062624;-77
2023/11/27 04:57:08;;;;;;;;;;;;;;;-128.00;-1.00;-1.00;105439;1253;1058083;-78
2023/11/27 04:59:49;;;;;;;37.00;15.60;;;;;;;-128.00;-1.00;-1.00;105470;1253;1059983;-78
2023/11/27 05:02:48;;;;;;;;;;;;;;;-128.00;-1.00;-1.00;105147;1256;1047012;-78
2023/11/27 05:05:15;;;;;;;25.90;12.10;;;;;;;-128.00;-1.00;-1.00;105089;1256;1004574;-78
2023/11/27 05:07:47;;;;;;;22.60;14.70;;;;;;;-128.00;-1.00;-1.00;105106;1256;1062739;-78
2023/11/27 05:10:28;;;;;;;26.90;15.10;;;;;;;-128.00;-1.00;-1.00;105093;1256;1058261;-78
2023/11/27 05:13:11;;;;;;;30.30;14.40;;;;;;;-128.00;-1.00;-1.00;105059;1256;1059595;-78
2023/11/27 05:15:40;;;;;;;24.30;11.70;;;;;;;-128.00;-1.00;-1.00;105310;1259;1046903;-78
2023/11/27 05:18:08;;;;;;;27.50;17.80;;;;;;;-128.00;-1.00;-1.00;105088;1256;1046961;-78
2023/11/27 05:20:36;;;;;;;27.90;17.20;;;;;;;-128.00;-1.00;-1.00;105224;1253;1004982;-78
2023/11/27 05:23:17;;;;;;;26.90;15.30;;;;;;;-128.00;-1.00;-1.00;105445;1252;1058117;-78
2023/11/27 05:25:50;;;;;;;51.00;23.60;;;;;;;-128.00;-1.00;-1.00;105472;1253;1059147;-78
2023/11/27 05:28:18;;;;;;;47.40;23.40;;;;;;;-128.00;-1.00;-1.00;105436;1253;1046101;-78
2023/11/27 05:30:59;;;;;;;43.30;21.30;;;;;;;-128.00;-1.00;-1.00;105545;1253;1047438;-78
2023/11/27 05:33:46;;;;;;;31.00;16.80;;;;;;;-128.00;-1.00;-1.00;105480;1252;1062205;-80
2023/11/27 05:36:27;;;;;;;34.20;20.90;;;;;;;-128.00;-1.00;-1.00;105429;1253;1058586;-78
2023/11/27 05:38:55;;;;;;;43.60;24.40;;;;;;;-128.00;-1.00;-1.00;105420;1253;1003988;-78
2023/11/27 05:41:39;;;;;;;25.10;14.70;;;;;;;-128.00;-1.00;-1.00;105449;1253;1046207;-78
2023/11/27 05:44:20;;;;;;;24.50;13.70;;;;;;;-128.00;-1.00;-1.00;105419;1253;1047360;-78
2023/11/27 05:47:03;;;;;;;40.10;21.70;;;;;;;-128.00;-1.00;-1.00;105430;1252;1062941;-78
2023/11/27 05:49:34;;;;;;;67.20;26.90;;;;;;;-128.00;-1.00;-1.00;105609;1252;1058361;-78
2023/11/27 05:52:17;;;;;;;98.60;44.10;;;;;;;-128.00;-1.00;-1.00;105312;1252;1059156;-78
2023/11/27 05:54:58;;;;;;;58.70;29.00;;;;;;;-128.00;-1.00;-1.00;105359;1253;1046255;-79
2023/11/27 05:57:42;;;;;;;48.00;25.10;;;;;;;-128.00;-1.00;-1.00;105306;1253;1046228;-78
2023/11/27 06:00:17;;;;;;;31.90;16.10;;;;;;;-128.00;-1.00;-1.00;105563;1253;1061955;-78
2023/11/27 06:03:53;;;;;;;61.30;31.80;;;;;;;-128.00;-1.00;-1.00;105498;1253;1057387;-78
2023/11/27 06:06:58;;;;;;;29.70;18.60;;;;;;;-128.00;-1.00;-1.00;105468;1253;1060063;-78
2023/11/27 06:09:44;;;;;;;26.90;13.90;;;;;;;-128.00;-1.00;-1.00;105570;1251;1046240;-78
2023/11/27 06:12:19;;;;;;;23.40;12.70;;;;;;;-128.00;-1.00;-1.00;105380;1252;1048068;-78
2023/11/27 06:14:57;;;;;;;23.70;13.60;;;;;;;-128.00;-1.00;-1.00;105485;1251;1061714;-78
2023/11/27 06:17:42;;;;;;;37.30;22.30;;;;;;;-128.00;-1.00;-1.00;105499;1252;1058084;-78
2023/11/27 06:20:26;;;;;;;49.50;28.20;;;;;;;-128.00;-1.00;-1.00;105370;1253;1059015;-78
2023/11/27 06:23:07;;;;;;;36.90;22.30;;;;;;;-128.00;-1.00;-1.00;105370;1251;1046207;-78
2023/11/27 06:25:43;;;;;;;40.30;24.80;;;;;;;-128.00;-1.00;-1.00;105500;1251;1046479;-78
2023/11/27 06:32:14;;;;;;;34.30;19.50;;;;;;;-128.00;-1.00;-1.00;97814;1251;10151832;-78
2023/11/27 06:34:47;;;;;;;23.70;15.10;;;;;;;-128.00;-1.00;-1.00;105591;1253;1047311;-78
2023/11/27 06:37:23;;;;;;;24.80;14.60;;;;;;;-128.00;-1.00;-1.00;105386;1252;1062030;-78
2023/11/27 06:40:08;;;;;;;36.90;20.40;;;;;;;-128.00;-1.00;-1.00;105348;1251;1057980;-78
2023/11/27 06:42:49;;;;;;;92.00;57.90;;;;;;;-128.00;-1.00;-1.00;105420;1253;1061314;-78
2023/11/27 06:45:29;;;;;;;84.40;47.20;;;;;;;-128.00;-1.00;-1.00;105408;1253;1046171;-79
2023/11/27 06:48:01;;;;;;;79.90;40.50;;;;;;;-128.00;-1.00;-1.00;105490;1252;1047564;-78
2023/11/27 06:50:32;;;;;;;72.60;37.80;;;;;;;-128.00;-1.00;-1.00;105379;1253;1004175;-78
2023/11/27 06:53:12;;;;;;;73.40;38.70;;;;;;;-128.00;-1.00;-1.00;105361;1252;1057515;-78
2023/11/27 06:55:59;;;;;;;;;;;;;;;;;;;;;
2023/11/27 06:58:31;;;;;;;62.20;34.30;;;;;;;-128.00;-1.00;-1.00;105473;1253;1047107;-78
2023/11/27 07:01:14;;;;;;;79.20;40.10;;;;;;;-128.00;-1.00;-1.00;105144;1253;1046879;-78
2023/11/27 07:03:55;;;;;;;63.60;35.40;;;;;;;-128.00;-1.00;-1.00;105386;1252;1063226;-78
2023/11/27 07:06:29;;;;;;;61.40;33.80;;;;;;;-128.00;-1.00;-1.00;105384;1253;1057611;-78
2023/11/27 07:09:10;;;;;;;59.40;34.10;;;;;;;-128.00;-1.00;-1.00;105611;1253;1058654;-78
2023/11/27 07:12:10;;;;;;;53.40;30.50;;;;;;;-128.00;-1.00;-1.00;105515;1254;1045459;-78
2023/11/27 07:14:57;;;;;;;49.10;27.70;;;;;;;-128.00;-1.00;-1.00;104949;1257;1047317;-77
2023/11/27 07:17:40;;;;;;;46.30;24.00;;;;;;;-128.00;-1.00;-1.00;104219;1257;1061901;-79
2023/11/27 07:20:21;;;;;;;56.40;32.10;;;;;;;-128.00;-1.00;-1.00;104327;1257;1059765;-78
2023/11/27 07:22:51;;;;;;;59.30;31.40;;;;;;;-128.00;-1.00;-1.00;105034;1256;1060911;-78
2023/11/27 07:25:37;;;;;;;59.20;28.50;;;;;;;-128.00;-1.00;-1.00;104976;1256;1047112;-78
2023/11/27 07:28:08;;;;;;;90.60;45.60;;;;;;;-128.00;-1.00;-1.00;105188;1256;1047361;-78
2023/11/27 07:30:50;;;;;;;80.40;38.40;;;;;;;-128.00;-1.00;-1.00;105256;1256;1062943;-78
2023/11/27 07:37:15;;;;;;;81.20;39.90;;;;;;;-128.00;-1.00;-1.00;105193;1257;1058128;-78
2023/11/27 07:39:45;;;;;;;71.70;38.10;;;;;;;-128.00;-1.00;-1.00;105056;1259;1046187;-78
2023/11/27 07:45:49;;;;;;;53.70;26.20;;;;;;;-128.00;-1.00;-1.00;105276;1252;1062862;-79
2023/11/27 07:48:30;;;;;;;50.80;24.30;;;;;;;-128.00;-1.00;-1.00;105693;1254;1058260;-79
2023/11/27 09:09:03;;;;;;;25.50;12.90;;;;;;;-128.00;-1.00;-1.00;105423;1253;1061342;-78
2023/11/27 09:11:31;;;;;;;25.10;13.70;;;;;;;-128.00;-1.00;-1.00;105261;1253;1004125;-78
2023/11/27 09:13:57;;;;;;;25.70;14.10;;;;;;;-128.00;-1.00;-1.00;105039;1253;1004487;-78
2023/11/27 09:16:24;;;;;;;23.10;12.50;;;;;;;-128.00;-1.00;-1.00;105329;1253;1004399;-78
2023/11/27 09:18:50;;;;;;;21.60;13.70;;;;;;;-128.00;-1.00;-1.00;105360;1253;1004519;-78
2023/11/27 09:21:18;;;;;;;35.60;19.10;;;;;;;-128.00;-1.00;-1.00;105345;1253;1004109;-78
2023/11/27 09:23:44;;;;;;;31.40;15.80;;;;;;;-128.00;-1.00;-1.00;105134;1253;1004193;-79
2023/11/27 09:26:13;;;;;;;22.20;13.20;;;;;;;-128.00;-1.00;-1.00;105255;1253;1004373;-79
2023/11/27 09:28:40;;;;;;;23.60;12.20;;;;;;;-128.00;-1.00;-1.00;105371;1254;1004924;-79
2023/11/27 09:31:07;;;;;;;24.30;13.80;;;;;;;-128.00;-1.00;-1.00;105277;1254;1004013;-79
2023/11/27 09:33:34;;;;;;;18.60;11.40;;;;;;;-128.00;-1.00;-1.00;105460;1253;1004508;-79
2023/11/27 09:36:03;;;;;;;27.20;13.90;;;;;;;-128.00;-1.00;-1.00;105323;1254;1004407;-78
2023/11/27 09:38:30;;;;;;;;;;;;;;;-128.00;-1.00;-1.00;105538;1253;1059735;-79
2023/11/27 09:40:56;;;;;;;27.20;14.00;;;;;;;-128.00;-1.00;-1.00;105554;1253;1004378;-79
2023/11/27 09:43:25;;;;;;;25.00;15.00;;;;;;;-128.00;-1.00;-1.00;105548;1253;1004142;-79
2023/11/27 09:45:51;;;;;;;23.10;14.40;;;;;;;-128.00;-1.00;-1.00;105286;1254;1062134;-79
2023/11/27 09:48:18;;;;;;;29.70;14.40;;;;;;;-128.00;-1.00;-1.00;105326;1258;1005022;-78
2023/11/27 09:50:45;;;;;;;26.20;13.40;;;;;;;-128.00;-1.00;-1.00;105325;1253;1004447;-78
2023/11/27 09:53:12;;;;;;;30.90;17.40;;;;;;;-128.00;-1.00;-1.00;105314;1253;1004445;-78
2023/11/27 09:55:39;;;;;;;24.00;14.90;;;;;;;-128.00;-1.00;-1.00;105360;1253;1003804;-78
2023/11/27 09:58:08;;;;;;;22.70;11.90;;;;;;;-128.00;-1.00;-1.00;105278;1256;1003907;-79
2023/11/27 10:00:35;;;;;;;26.10;13.60;;;;;;;-128.00;-1.00;-1.00;104821;1258;1058541;-78
2023/11/27 10:03:02;;;;;;;24.10;13.40;;;;;;;-128.00;-1.00;-1.00;104497;1254;1003606;-79
2023/11/27 10:05:29;;;;;;;29.00;15.10;;;;;;;-128.00;-1.00;-1.00;104353;1260;1003520;-79
2023/11/27 10:07:57;;;;;;;26.50;14.30;;;;;;;-128.00;-1.00;-1.00;104453;1257;1005060;-79
2023/11/27 10:10:26;;;;;;;30.60;14.50;;;;;;;-128.00;-1.00;-1.00;104306;1253;1004444;-78
2023/11/27 10:13:06;;;;;;;33.60;19.60;;;;;;;-128.00;-1.00;-1.00;104494;1253;1060513;-78
2023/11/27 10:15:34;;;;;;;27.30;16.80;;;;;;;-128.00;-1.00;-1.00;104550;1254;1058918;-79
2023/11/27 10:18:01;;;;;;;28.20;14.30;;;;;;;-128.00;-1.00;-1.00;104466;1259;1004157;-78
2023/11/27 10:20:29;;;;;;;24.10;13.70;;;;;;;-128.00;-1.00;-1.00;104501;1257;1004407;-79
2023/11/27 10:22:59;;;;;;;21.00;12.20;;;;;;;-128.00;-1.00;-1.00;104537;1253;1004529;-78
2023/11/27 10:25:25;;;;;;;23.00;11.90;;;;;;;-128.00;-1.00;-1.00;104550;1253;1057749;-78
2023/11/27 10:28:00;;;;;;;22.60;12.10;;;;;;;-128.00;-1.00;-1.00;104320;1253;1005031;-79
2023/11/27 10:30:29;;;;;;;24.30;12.00;;;;;;;-128.00;-1.00;-1.00;104308;1259;1045183;-79
2023/11/27 10:32:56;;;;;;;20.60;12.50;;;;;;;-128.00;-1.00;-1.00;104498;1254;1046538;-79
2023/11/27 10:35:25;;;;;;;24.90;12.60;;;;;;;-128.00;-1.00;-1.00;104540;1253;1004885;-80
2023/11/27 10:37:55;;;;;;;25.40;14.30;;;;;;;-128.00;-1.00;-1.00;104511;1253;1058931;-79
2023/11/27 10:40:25;;;;;;;20.20;12.20;;;;;;;-128.00;-1.00;-1.00;104500;1253;1058607;-79
2023/11/27 10:42:57;;;;;;;21.20;12.10;;;;;;;-128.00;-1.00;-1.00;104486;1258;1046496;-78
2023/11/27 10:45:24;;;;;;;26.70;14.10;;;;;;;-128.00;-1.00;-1.00;104341;1254;1049072;-79
2023/11/27 10:47:53;;;;;;;27.30;15.80;;;;;;;-128.00;-1.00;-1.00;104490;1254;1004254;-79
2023/11/27 10:50:22;;;;;;;22.60;11.40;;;;;;;-128.00;-1.00;-1.00;104536;1257;1058655;-79
2023/11/27 10:52:49;;;;;;;21.80;11.40;;;;;;;-128.00;-1.00;-1.00;104405;1253;1059486;-79
2023/11/27 10:55:17;;;;;;;21.00;11.70;;;;;;;-128.00;-1.00;-1.00;104598;1253;1004668;-79
2023/11/27 10:57:44;;;;;;;21.70;11.20;;;;;;;-128.00;-1.00;-1.00;104652;1253;1004481;-80
2023/11/27 11:00:18;;;;;;;21.30;11.40;;;;;;;-128.00;-1.00;-1.00;104719;1253;1004583;-80
2023/11/27 11:02:50;;;;;;;18.80;10.20;;;;;;;-128.00;-1.00;-1.00;104564;1253;1056929;-79
2023/11/27 11:05:21;;;;;;;35.50;14.70;;;;;;;-128.00;-1.00;-1.00;104566;1253;1059174;-79
2023/11/27 11:07:48;;;;;;;23.20;10.90;;;;;;;-128.00;-1.00;-1.00;104720;1254;1045740;-80
2023/11/27 11:10:15;;;;;;;40.60;17.10;;;;;;;-128.00;-1.00;-1.00;104554;1255;1004360;-79
2023/11/27 11:12:43;;;;;;;38.70;17.40;;;;;;;-128.00;-1.00;-1.00;104576;1253;1004066;-79
2023/11/27 11:15:16;;;;;;;23.90;12.80;;;;;;;-128.00;-1.00;-1.00;104545;1259;1004162;-78
2023/11/27 11:17:56;;;;;;;33.70;17.20;;;;;;;-128.00;-1.00;-1.00;104662;1254;1059323;-78
2023/11/27 11:20:49;;;;;;;23.20;11.70;;;;;;;-128.00;-1.00;-1.00;104451;1254;1045696;-78
2023/11/27 11:23:29;;;;;;;22.60;11.30;;;;;;;-128.00;-1.00;-1.00;104628;1255;1046960;-78
2023/11/27 11:26:32;;;;;;;22.90;12.50;;;;;;;-128.00;-1.00;-1.00;104685;1252;1063063;-78
2023/11/27 11:29:14;;;;;;;19.40;10.70;;;;;;;-128.00;-1.00;-1.00;104311;1253;1059749;-78
2023/11/27 11:31:48;;;;;;;29.40;15.50;;;;;;;-128.00;-1.00;-1.00;104682;1253;1059062;-78
2023/11/27 11:34:22;;;;;;;21.00;13.60;;;;;;;-128.00;-1.00;-1.00;104679;1253;1045468;-79
2023/11/27 11:36:58;;;;;;;17.30;11.10;;;;;;;-128.00;-1.00;-1.00;104680;1258;1046107;-78
2023/11/27 11:39:25;;;;;;;17.00;10.10;;;;;;;-128.00;-1.00;-1.00;104463;1253;1063046;-78
2023/11/27 11:42:01;;;;;;;25.70;10.30;;;;;;;-128.00;-1.00;-1.00;104731;1253;1005424;-80
2023/11/27 11:44:29;;;;;;;20.50;11.00;;;;;;;-128.00;-1.00;-1.00;104671;1254;1058803;-79
2023/11/27 11:46:56;;;;;;;22.00;10.60;;;;;;;-128.00;-1.00;-1.00;104538;1254;1004221;-79
2023/11/27 11:49:28;;;;;;;20.60;12.30;;;;;;;-128.00;-1.00;-1.00;104618;1258;1004487;-78
2023/11/27 11:52:03;;;;;;;16.10;9.10;;;;;;;-128.00;-1.00;-1.00;104758;1253;1062922;-78
2023/11/27 11:54:31;;;;;;;22.40;11.70;;;;;;;-128.00;-1.00;-1.00;104663;1254;1057178;-78
2023/11/27 11:57:14;;;;;;;17.90;10.80;;;;;;;-128.00;-1.00;-1.00;104704;1253;1059484;-78
2023/11/27 11:59:46;;;;;;;17.50;9.50;;;;;;;-128.00;-1.00;-1.00;104464;1255;1046655;-78
2023/11/27 12:02:14;;;;;;;20.40;11.60;;;;;;;-128.00;-1.00;-1.00;104621;1253;1047159;-79
2023/11/27 12:04:40;;;;;;;20.20;11.10;;;;;;;-128.00;-1.00;-1.00;104428;1260;1004068;-78
2023/11/27 12:07:08;;;;;;;18.60;9.80;;;;;;;-128.00;-1.00;-1.00;104637;1254;1004420;-79
2023/11/27 12:09:35;;;;;;;21.60;10.40;;;;;;;-128.00;-1.00;-1.00;104412;1255;1004113;-78
2023/11/27 12:12:01;;;;;;;16.20;9.40;;;;;;;-128.00;-1.00;-1.00;104656;1258;1004478;-78
2023/11/27 12:14:28;;;;;;;16.10;9.20;;;;;;;-128.00;-1.00;-1.00;104640;1254;1004022;-78
2023/11/27 12:16:55;;;;;;;555.40;173.50;;;;;;;-128.00;-1.00;-1.00;104669;1257;1004961;-79
2023/11/27 12:19:22;;;;;;;384.30;116.50;;;;;;;-128.00;-1.00;-1.00;104405;1254;1003887;-79
2023/11/27 12:21:52;;;;;;;98.00;47.40;;;;;;;-128.00;-1.00;-1.00;104466;1254;1005073;-79
2023/11/27 12:24:19;;;;;;;420.20;129.60;;;;;;;-128.00;-1.00;-1.00;104625;1254;1044669;-78
2023/11/27 12:26:52;;;;;;;83.10;35.10;;;;;;;-128.00;-1.00;-1.00;104598;1253;1003906;-79
2023/11/27 12:29:22;;;;;;;202.70;62.50;;;;;;;-128.00;-1.00;-1.00;104657;1255;1062364;-78
2023/11/27 12:31:51;;;;;;;78.70;32.80;;;;;;;-128.00;-1.00;-1.00;104675;1255;1056955;-79
2023/11/27 12:34:21;;;;;;;106.30;36.40;;;;;;;-128.00;-1.00;-1.00;104609;1258;1059819;-78
2023/11/27 12:36:48;;;;;;;49.20;24.70;;;;;;;-128.00;-1.00;-1.00;104664;1258;1046697;-78
2023/11/27 12:39:25;;;;;;;506.30;196.60;;;;;;;-128.00;-1.00;-1.00;104629;1257;1004844;-79
2023/11/27 12:42:01;;;;;;;285.70;107.00;;;;;;;-128.00;-1.00;-1.00;104628;1258;1062081;-78
2023/11/27 12:44:31;;;;;;;204.00;70.50;;;;;;;-128.00;-1.00;-1.00;104636;1253;1056737;-78
2023/11/27 12:47:00;;;;;;;150.00;58.00;;;;;;;-128.00;-1.00;-1.00;104605;1255;1060563;-79
2023/11/27 12:49:27;;;;;;;97.40;35.10;;;;;;;-128.00;-1.00;-1.00;104480;1259;1046147;-79
2023/11/27 12:51:57;;;;;;;268.10;95.70;;;;;;;-128.00;-1.00;-1.00;104435;1253;1004681;-79
2023/11/27 12:54:27;;;;;;;284.10;99.00;;;;;;;-128.00;-1.00;-1.00;104664;1257;1062322;-78
2023/11/27 12:57:00;;;;;;;309.50;129.70;;;;;;;-128.00;-1.00;-1.00;104653;1254;1057302;-78
2023/11/27 12:59:27;;;;;;;92.50;42.80;;;;;;;-128.00;-1.00;-1.00;104463;1254;1059450;-78
2023/11/27 13:01:55;;;;;;;74.70;33.50;;;;;;;-128.00;-1.00;-1.00;104650;1257;1004580;-77
2023/11/27 13:04:22;;;;;;;71.90;41.40;;;;;;;-128.00;-1.00;-1.00;104636;1254;1003738;-79